createdAt,value
2019-04-05T00:01:03.866Z,20.00
2019-04-05T00:03:35.642Z,19.20
2019-04-05T00:06:07.413Z,23.00
2019-04-05T00:08:39.282Z,23.40
2019-04-05T00:11:11.718Z,21.82
2019-04-05T00:13:43.591Z,24.50
2019-04-05T00:16:15.645Z,22.13
2019-04-05T00:18:47.720Z,26.97
2019-04-05T00:21:19.515Z,23.00
2019-04-05T00:23:51.223Z,12.40
2019-04-05T00:26:22.911Z,26.43
2019-04-05T00:28:55.064Z,28.13
2019-04-05T00:31:26.805Z,24.33
2019-04-05T00:33:59.563Z,26.37
2019-04-05T00:36:31.648Z,26.67
2019-04-05T00:39:04.065Z,30.87
2019-04-05T00:41:36.390Z,27.23
2019-04-05T00:44:08.229Z,18.20
2019-04-05T00:46:40.018Z,20.97
2019-04-05T00:49:11.719Z,30.32
2019-04-05T00:51:43.849Z,27.17
2019-04-05T00:54:15.914Z,27.10
2019-04-05T00:56:47.773Z,25.50
2019-04-05T00:59:19.635Z,17.65
2019-04-05T01:01:51.754Z,19.83
2019-04-05T01:04:23.795Z,30.77
2019-04-05T01:06:55.636Z,32.80
2019-04-05T01:09:27.434Z,21.50
2019-04-05T01:11:59.216Z,31.30
2019-04-05T01:14:31.110Z,24.93
2019-04-05T01:17:02.869Z,23.40
2019-04-05T01:19:36.556Z,30.40
2019-04-05T01:22:10.643Z,32.30
2019-04-05T01:24:42.921Z,29.53
2019-04-05T01:27:15.516Z,30.40
2019-04-05T01:29:47.379Z,32.53
2019-04-05T01:32:20.070Z,31.70
2019-04-05T01:34:51.864Z,30.47
2019-04-05T01:37:24.209Z,26.25
2019-04-05T01:39:56.062Z,29.87
2019-04-05T01:42:28.109Z,32.60
2019-04-05T01:45:00.295Z,28.05
2019-04-05T01:47:32.116Z,31.53
2019-04-05T01:50:06.159Z,30.57
2019-04-05T01:52:38.221Z,30.80
2019-04-05T01:55:10.157Z,28.40
2019-04-05T01:57:41.922Z,23.43
2019-04-05T02:00:14.595Z,28.57
2019-04-05T02:02:46.590Z,34.20
2019-04-05T02:05:18.611Z,30.80
2019-04-05T02:07:50.695Z,28.33
2019-04-05T02:10:22.875Z,31.07
2019-04-05T02:12:54.863Z,36.37
2019-04-05T02:15:32.055Z,33.85
2019-04-05T02:18:03.888Z,23.83
2019-04-05T02:20:35.847Z,28.63
2019-04-05T02:23:07.618Z,32.87
2019-04-05T02:25:39.480Z,34.73
2019-04-05T02:28:12.024Z,33.92
2019-04-05T02:30:43.923Z,30.87
2019-04-05T02:33:16.608Z,35.40
2019-04-05T02:35:48.553Z,71.13
2019-04-05T02:38:20.328Z,38.20
2019-04-05T02:40:53.472Z,27.83
2019-04-05T02:43:28.258Z,31.27
2019-04-05T02:46:01.095Z,35.80
2019-04-05T02:48:35.959Z,41.98
2019-04-05T02:51:10.163Z,37.53
2019-04-05T02:53:42.644Z,36.93
2019-04-05T02:56:14.920Z,35.27
2019-04-05T02:58:47.450Z,25.50
2019-04-05T03:01:22.623Z,35.07
2019-04-05T03:03:53.276Z,35.63
2019-04-05T03:06:25.538Z,37.13
2019-04-05T03:08:58.113Z,36.08
2019-04-05T03:11:33.825Z,35.93
2019-04-05T03:14:06.521Z,36.53
2019-04-05T03:16:42.390Z,33.63
2019-04-05T03:19:22.705Z,31.20
2019-04-05T03:22:02.183Z,32.37
2019-04-05T03:24:37.373Z,33.63
2019-04-05T03:27:17.452Z,27.53
2019-04-05T03:29:49.471Z,31.13
2019-04-05T03:32:21.464Z,22.67
2019-04-05T03:34:54.261Z,25.87
2019-04-05T03:37:26.742Z,72.10
2019-04-05T03:39:58.789Z,39.53
2019-04-05T03:42:32.112Z,29.53
2019-04-05T03:45:04.153Z,29.87
2019-04-05T03:47:36.123Z,26.67
2019-04-05T03:50:09.172Z,28.53
2019-04-05T03:52:41.656Z,25.57
2019-04-05T03:55:13.841Z,28.87
2019-04-05T03:57:45.999Z,28.10
2019-04-05T04:00:17.968Z,13.32
2019-04-05T04:02:50.270Z,71.23
2019-04-05T04:05:22.331Z,36.25
2019-04-05T04:07:54.389Z,38.73
2019-04-05T04:10:28.657Z,36.05
2019-04-05T04:13:00.747Z,27.33
2019-04-05T04:15:34.909Z,27.37
2019-04-05T04:18:07.756Z,28.03
2019-04-05T04:20:48.668Z,27.40
2019-04-05T04:23:21.946Z,31.90
2019-04-05T04:25:55.328Z,25.07
2019-04-05T04:28:27.755Z,29.32
2019-04-05T04:31:00.065Z,27.53
2019-04-05T04:33:32.060Z,27.90
2019-04-05T04:36:04.178Z,28.10
2019-04-05T04:38:36.078Z,28.97
2019-04-05T04:41:08.861Z,26.70
2019-04-05T04:43:41.132Z,21.37
2019-04-05T04:46:13.523Z,27.70
2019-04-05T04:48:46.478Z,25.43
2019-04-05T04:51:19.379Z,26.42
2019-04-05T04:53:52.419Z,20.97
2019-04-05T04:56:24.875Z,28.23
2019-04-05T04:58:56.898Z,28.60
2019-04-05T05:01:29.078Z,31.20
2019-04-05T05:04:01.014Z,31.30
2019-04-05T05:06:32.915Z,29.03
2019-04-05T05:09:07.641Z,28.20
2019-04-05T05:11:39.736Z,27.23
2019-04-05T05:14:12.098Z,28.50
2019-04-05T05:16:44.653Z,29.93
2019-04-05T05:19:16.552Z,32.10
2019-04-05T05:21:49.615Z,29.63
2019-04-05T05:24:22.040Z,28.40
2019-04-05T05:26:53.859Z,27.27
2019-04-05T05:29:25.948Z,31.23
2019-04-05T05:31:57.865Z,30.30
2019-04-05T05:34:29.742Z,29.00
2019-04-05T05:37:01.631Z,30.50
2019-04-05T05:39:33.436Z,32.95
2019-04-05T05:42:05.345Z,28.90
2019-04-05T05:44:37.185Z,28.87
2019-04-05T05:47:09.083Z,30.73
2019-04-05T05:49:40.975Z,28.53
2019-04-05T05:52:12.895Z,30.47
2019-04-05T05:54:44.631Z,31.10
2019-04-05T05:57:16.458Z,39.83
2019-04-05T05:59:48.227Z,33.13
2019-04-05T06:02:20.031Z,32.53
2019-04-05T06:04:51.790Z,30.80
2019-04-05T06:07:23.547Z,27.85
2019-04-05T06:09:55.295Z,34.40
2019-04-05T06:12:27.106Z,27.30
2019-04-05T06:14:58.849Z,31.00
2019-04-05T06:17:30.658Z,29.13
2019-04-05T06:20:02.872Z,30.40
2019-04-05T06:22:35.261Z,33.77
2019-04-05T06:25:07.575Z,31.60
2019-04-05T06:27:39.321Z,31.50
2019-04-05T06:30:11.752Z,31.47
2019-04-05T06:32:43.644Z,32.23
2019-04-05T06:35:15.547Z,31.13
2019-04-05T06:37:47.296Z,29.60
2019-04-05T06:40:19.178Z,30.70
2019-04-05T06:42:50.919Z,32.27
2019-04-05T06:45:22.817Z,30.48
2019-04-05T06:47:54.640Z,28.70
2019-04-05T06:50:26.382Z,36.98
2019-04-05T06:52:58.569Z,30.83
2019-04-05T06:55:30.313Z,31.97
2019-04-05T06:58:02.054Z,30.50
2019-04-05T07:00:33.784Z,27.57
2019-04-05T07:03:05.668Z,25.77
2019-04-05T07:05:37.559Z,25.43
2019-04-05T07:08:09.316Z,26.53
2019-04-05T07:10:41.365Z,28.53
2019-04-05T07:13:13.093Z,26.07
2019-04-05T07:15:44.897Z,28.47
2019-04-05T07:18:16.945Z,28.10
2019-04-05T07:20:49.226Z,26.00
2019-04-05T07:23:21.069Z,27.10
2019-04-05T07:25:52.875Z,28.93
2019-04-05T07:28:25.231Z,27.98
2019-04-05T07:30:57.131Z,27.90
2019-04-05T07:33:29.186Z,27.70
2019-04-05T07:36:03.370Z,26.00
2019-04-05T07:38:34.339Z,27.50
2019-04-05T07:41:06.170Z,23.13
2019-04-05T07:43:38.001Z,27.93
2019-04-05T07:46:09.745Z,30.20
2019-04-05T07:48:45.023Z,27.53
2019-04-05T07:51:15.434Z,26.10
2019-04-05T07:53:47.179Z,27.47
2019-04-05T07:56:18.906Z,24.90
2019-04-05T07:58:50.715Z,24.20
2019-04-05T08:01:23.671Z,26.42
2019-04-05T08:03:58.025Z,29.20
2019-04-05T08:06:30.481Z,24.95
2019-04-05T08:09:14.075Z,24.47
2019-04-05T08:11:46.651Z,22.17
2019-04-05T08:14:19.788Z,29.03
2019-04-05T08:16:51.764Z,24.80
2019-04-05T08:19:23.661Z,26.85
2019-04-05T08:21:55.469Z,24.17
2019-04-05T08:24:27.607Z,23.37
2019-04-05T08:26:59.512Z,27.47
2019-04-05T08:29:31.349Z,25.50
2019-04-05T08:32:13.998Z,28.53
2019-04-05T08:34:36.683Z,25.60
2019-04-05T08:37:08.500Z,26.80
2019-04-05T08:39:40.231Z,25.17
2019-04-05T08:42:12.064Z,24.77
2019-04-05T08:44:43.874Z,24.67
2019-04-05T08:47:15.812Z,26.97
2019-04-05T08:49:47.663Z,23.37
2019-04-05T08:52:19.402Z,25.27
2019-04-05T08:54:51.146Z,24.97
2019-04-05T08:57:22.884Z,25.17
2019-04-05T08:59:54.634Z,25.73
2019-04-05T09:02:26.348Z,26.63
2019-04-05T09:04:58.262Z,25.53
2019-04-05T09:07:29.990Z,24.30
2019-04-05T09:10:01.755Z,29.27
2019-04-05T09:12:33.777Z,26.03
2019-04-05T09:15:05.931Z,24.47
2019-04-05T09:17:37.740Z,24.73
2019-04-05T09:20:09.641Z,26.10
2019-04-05T09:22:41.360Z,23.50
2019-04-05T09:25:13.188Z,20.93
2019-04-05T09:27:44.928Z,22.83
2019-04-05T09:30:16.917Z,22.13
2019-04-05T09:32:48.732Z,21.30
2019-04-05T09:35:20.471Z,20.25
2019-04-05T09:37:52.213Z,20.25
2019-04-05T09:40:24.124Z,18.75
2019-04-05T09:42:55.960Z,21.87
2019-04-05T09:45:27.903Z,23.70
2019-04-05T09:48:00.046Z,21.47
2019-04-05T09:50:32.172Z,20.17
2019-04-05T09:53:03.964Z,21.27
2019-04-05T09:55:35.857Z,20.47
2019-04-05T09:58:10.059Z,22.40
2019-04-05T10:00:41.522Z,21.97
2019-04-05T10:03:13.319Z,23.50
2019-04-05T10:05:45.053Z,21.53
2019-04-05T10:08:16.780Z,21.45
2019-04-05T10:10:48.784Z,21.43
2019-04-05T10:13:20.853Z,22.02
2019-04-05T10:15:52.666Z,22.83
2019-04-05T10:18:24.392Z,19.60
2019-04-05T10:20:56.231Z,22.83
2019-04-05T10:23:28.017Z,22.40
2019-04-05T10:25:59.933Z,19.40
2019-04-05T10:28:31.667Z,20.50
2019-04-05T10:31:03.772Z,23.57
2019-04-05T10:33:35.481Z,25.87
2019-04-05T10:36:07.300Z,20.47
2019-04-05T10:38:39.389Z,17.87
2019-04-05T10:41:11.820Z,23.30
2019-04-05T10:43:44.303Z,16.90
2019-04-05T10:46:16.050Z,25.87
2019-04-05T10:48:47.775Z,23.07
2019-04-05T10:51:19.587Z,20.40
2019-04-05T10:53:51.319Z,20.90
2019-04-05T10:56:23.361Z,23.80
2019-04-05T10:58:55.167Z,22.53
2019-04-05T11:01:28.045Z,17.75
2019-04-05T11:03:59.770Z,19.63
2019-04-05T11:06:31.553Z,22.53
2019-04-05T11:09:04.287Z,21.23
2019-04-05T11:11:36.344Z,21.03
2019-04-05T11:14:14.066Z,20.43
2019-04-05T11:16:41.724Z,23.63
2019-04-05T11:19:13.898Z,19.87
2019-04-05T11:21:47.859Z,19.47
2019-04-05T11:24:19.083Z,21.30
2019-04-05T11:26:51.858Z,17.97
2019-04-05T11:29:23.591Z,20.17
2019-04-05T11:31:57.459Z,18.27
2019-04-05T11:34:28.897Z,24.18
2019-04-05T11:37:03.032Z,22.87
2019-04-05T11:39:34.958Z,21.85
2019-04-05T11:42:06.939Z,20.30
2019-04-05T11:44:41.574Z,16.93
2019-04-05T11:47:13.538Z,16.43
2019-04-05T11:49:48.311Z,17.30
2019-04-05T11:52:20.256Z,17.05
2019-04-05T11:54:52.355Z,18.17
2019-04-05T11:57:24.114Z,22.30
2019-04-05T11:59:55.914Z,20.17
2019-04-05T12:02:36.347Z,24.77
2019-04-05T12:05:09.123Z,24.50
2019-04-05T12:07:40.840Z,17.97
2019-04-05T12:10:13.176Z,17.17
2019-04-05T12:12:44.969Z,17.43
2019-04-05T12:15:17.153Z,18.00
2019-04-05T12:17:48.875Z,17.50
2019-04-05T12:20:20.838Z,20.17
2019-04-05T12:22:53.620Z,16.23
2019-04-05T12:25:25.418Z,31.48
2019-04-05T12:28:06.335Z,20.63
2019-04-05T12:30:31.251Z,19.03
2019-04-05T12:33:13.191Z,16.50
2019-04-05T12:35:37.712Z,19.90
2019-04-05T12:38:09.676Z,26.40
2019-04-05T12:40:41.426Z,20.43
2019-04-05T12:43:14.277Z,23.07
2019-04-05T12:45:46.221Z,17.87
2019-04-05T12:48:17.958Z,24.33
2019-04-05T12:51:00.552Z,23.33
2019-04-05T12:53:26.241Z,25.10
2019-04-05T12:55:57.092Z,21.60
2019-04-05T12:58:29.170Z,18.27
2019-04-05T13:01:00.895Z,23.63
2019-04-05T13:03:32.786Z,29.67
2019-04-05T13:06:04.788Z,19.40
2019-04-05T13:08:36.514Z,24.33
2019-04-05T13:11:08.332Z,23.00
2019-04-05T13:13:40.205Z,22.63
2019-04-05T13:16:12.151Z,18.50
2019-04-05T13:18:43.903Z,19.07
2019-04-05T13:21:16.654Z,19.03
2019-04-05T13:23:48.404Z,17.47
2019-04-05T13:26:20.115Z,18.23
2019-04-05T13:28:51.846Z,20.23
2019-04-05T13:31:23.573Z,16.67
2019-04-05T13:33:55.703Z,17.30
2019-04-05T13:36:27.374Z,17.83
2019-04-05T13:39:00.385Z,14.67
2019-04-05T13:41:34.099Z,21.23
2019-04-05T13:44:06.136Z,24.73
2019-04-05T13:46:39.117Z,22.63
2019-04-05T13:49:11.177Z,20.97
2019-04-05T13:51:43.959Z,22.33
2019-04-05T13:54:15.714Z,26.20
2019-04-05T13:56:47.640Z,24.33
2019-04-05T13:59:19.500Z,16.47
2019-04-05T14:01:51.603Z,17.90
2019-04-05T14:04:23.474Z,29.13
2019-04-05T14:06:55.356Z,24.50
2019-04-05T14:09:27.077Z,19.27
2019-04-05T14:11:58.863Z,17.40
2019-04-05T14:14:30.739Z,17.03
2019-04-05T14:17:02.523Z,18.80
2019-04-05T14:19:34.500Z,15.50
2019-04-05T14:22:08.984Z,16.83
2019-04-05T14:24:39.931Z,16.70
2019-04-05T14:27:11.807Z,14.50
2019-04-05T14:29:43.873Z,14.47
2019-04-05T14:32:21.301Z,15.80
2019-04-05T14:34:49.548Z,17.05
2019-04-05T14:37:24.812Z,14.73
2019-04-05T14:39:54.778Z,15.63
2019-04-05T14:42:29.671Z,14.37
2019-04-05T14:45:01.630Z,18.30
2019-04-05T14:47:33.707Z,16.97
2019-04-05T14:50:07.161Z,16.20
2019-04-05T14:52:40.117Z,17.07
2019-04-05T14:55:11.977Z,16.90
2019-04-05T14:57:43.772Z,20.87
2019-04-05T15:00:17.403Z,19.77
2019-04-05T15:02:49.424Z,17.43
2019-04-05T15:05:21.547Z,17.77
2019-04-05T15:07:54.971Z,19.70
2019-04-05T15:10:27.264Z,21.77
2019-04-05T15:13:00.383Z,16.43
2019-04-05T15:15:32.279Z,19.67
2019-04-05T15:18:04.005Z,18.90
2019-04-05T15:20:35.724Z,18.83
2019-04-05T15:23:09.529Z,19.60
2019-04-05T15:25:41.115Z,17.10
2019-04-05T15:28:12.943Z,23.07
2019-04-05T15:30:44.724Z,20.10
2019-04-05T15:33:16.439Z,22.83
2019-04-05T15:35:48.842Z,17.47
2019-04-05T15:38:20.856Z,21.73
2019-04-05T15:40:52.926Z,19.20
2019-04-05T15:43:24.649Z,20.80
2019-04-05T15:45:56.409Z,21.33
2019-04-05T15:48:28.344Z,20.47
2019-04-05T15:51:00.357Z,21.70
2019-04-05T15:53:32.674Z,18.83
2019-04-05T15:56:04.930Z,20.33
2019-04-05T15:58:37.672Z,18.60
2019-04-05T16:01:10.262Z,20.73
2019-04-05T16:03:42.127Z,17.30
2019-04-05T16:06:14.241Z,19.37
2019-04-05T16:08:46.053Z,17.17
2019-04-05T16:11:17.871Z,19.77
2019-04-05T16:13:49.636Z,17.73
2019-04-05T16:16:21.370Z,16.93
2019-04-05T16:18:53.469Z,18.97
2019-04-05T16:21:25.415Z,16.37
2019-04-05T16:23:57.217Z,18.70
2019-04-05T16:26:29.121Z,19.53
2019-04-05T16:29:01.248Z,18.27
2019-04-05T16:31:33.155Z,17.80
2019-04-05T16:34:04.859Z,18.93
2019-04-05T16:36:36.600Z,19.10
2019-04-05T16:39:13.393Z,18.70
2019-04-05T16:41:45.202Z,14.97
2019-04-05T16:44:16.961Z,18.23
2019-04-05T16:46:49.004Z,17.60
2019-04-05T16:49:21.050Z,17.67
2019-04-05T16:51:52.863Z,16.67
2019-04-05T16:54:24.898Z,18.55
2019-04-05T16:56:56.719Z,18.30
2019-04-05T16:59:28.504Z,21.00
2019-04-05T17:02:01.443Z,18.40
2019-04-05T17:04:33.260Z,16.80
2019-04-05T17:07:06.258Z,18.83
2019-04-05T17:09:38.048Z,17.97
2019-04-05T17:12:09.963Z,18.83
2019-04-05T17:14:42.352Z,19.03
2019-04-05T17:17:14.097Z,17.63
2019-04-05T17:19:45.878Z,22.57
2019-04-05T17:22:17.915Z,18.57
2019-04-05T17:24:49.971Z,22.57
2019-04-05T17:27:21.771Z,18.97
2019-04-05T17:29:53.508Z,23.87
2019-04-05T17:32:25.246Z,21.23
2019-04-05T17:34:56.999Z,21.23
2019-04-05T17:37:28.823Z,21.87
2019-04-05T17:40:00.816Z,23.90
2019-04-05T17:42:34.785Z,20.40
2019-04-05T17:45:07.667Z,20.43
2019-04-05T17:47:39.629Z,21.23
2019-04-05T17:53:13.187Z,19.37
2019-04-05T17:55:42.944Z,23.27
2019-04-05T17:58:15.518Z,21.07
2019-04-05T18:00:47.483Z,22.50
2019-04-05T18:03:19.274Z,21.25
2019-04-05T18:05:51.013Z,20.90
2019-04-05T18:08:23.091Z,22.90
2019-04-05T18:10:54.821Z,20.77
2019-04-05T18:13:26.549Z,25.60
2019-04-05T18:15:58.298Z,22.30
2019-04-05T18:18:30.042Z,21.33
2019-04-05T18:21:01.841Z,22.47
2019-04-05T18:23:33.569Z,21.23
2019-04-05T18:26:05.530Z,22.37
2019-04-05T18:28:37.354Z,21.27
2019-04-05T18:31:09.224Z,25.20
2019-04-05T18:33:41.043Z,19.35
2019-04-05T18:36:12.885Z,19.90
2019-04-05T18:38:45.271Z,20.03
2019-04-05T18:41:17.079Z,18.98
2019-04-05T18:43:49.192Z,17.17
2019-04-05T18:46:21.889Z,15.13
2019-04-05T18:48:53.622Z,15.87
2019-04-05T18:51:25.714Z,20.62
2019-04-05T18:53:58.104Z,15.03
2019-04-05T18:56:29.900Z,22.07
2019-04-05T18:59:01.886Z,16.60
2019-04-05T19:01:33.619Z,18.17
2019-04-05T19:04:05.786Z,19.47
2019-04-05T19:06:37.531Z,18.43
2019-04-05T19:09:11.906Z,17.43
2019-04-05T19:11:43.215Z,15.93
2019-04-05T19:14:14.944Z,15.80
2019-04-05T19:16:46.708Z,20.53
2019-04-05T19:19:18.812Z,19.55
2019-04-05T19:21:50.618Z,19.30
2019-04-05T19:24:22.371Z,16.45
2019-04-05T19:26:54.096Z,21.53
2019-04-05T19:29:26.805Z,17.62
2019-04-05T19:49:53.165Z,14.23
2019-04-05T19:52:25.957Z,18.32
2019-04-05T19:54:57.698Z,17.40
2019-04-05T19:57:29.695Z,17.90
2019-04-05T20:00:01.507Z,14.90
2019-04-05T20:02:33.347Z,13.70
2019-04-05T20:05:05.913Z,15.13
2019-04-05T20:07:37.649Z,15.43
2019-04-05T20:10:09.650Z,15.70
2019-04-05T20:12:41.405Z,19.63
2019-04-05T20:15:13.466Z,16.63
2019-04-05T20:17:45.283Z,16.37
2019-04-05T20:20:17.289Z,14.80
2019-04-05T20:22:49.016Z,15.17
2019-04-05T20:25:20.765Z,14.90
2019-04-05T20:27:52.512Z,18.90
2019-04-05T20:30:24.433Z,21.87
2019-04-05T20:32:56.186Z,20.20
2019-04-05T20:35:27.985Z,21.33
2019-04-05T20:37:59.741Z,20.07
2019-04-05T20:40:31.492Z,19.37
2019-04-05T20:43:03.221Z,17.57
2019-04-05T20:45:35.066Z,18.73
2019-04-05T20:48:06.943Z,17.33
2019-04-05T20:50:39.647Z,19.30
2019-04-05T20:53:11.512Z,20.63
2019-04-05T20:55:43.199Z,21.37
2019-04-05T20:58:14.939Z,21.07
2019-04-05T21:00:46.691Z,22.57
2019-04-05T21:03:18.715Z,22.73
2019-04-05T21:05:50.531Z,21.80
2019-04-05T21:08:22.341Z,20.75
2019-04-05T21:10:54.247Z,21.90
2019-04-05T21:13:26.137Z,34.13
2019-04-05T21:15:57.966Z,59.97
2019-04-05T21:18:29.917Z,56.17
2019-04-05T21:21:01.907Z,52.20
2019-04-05T21:23:33.802Z,39.97
2019-04-05T21:26:05.761Z,35.23
2019-04-05T21:28:37.563Z,30.00
2019-04-05T21:31:09.297Z,29.70
2019-04-05T21:33:42.063Z,27.73
2019-04-05T21:36:14.096Z,33.30
2019-04-05T21:38:45.890Z,31.00
2019-04-05T21:41:17.630Z,24.72
2019-04-05T21:43:49.364Z,25.62
2019-04-05T21:46:21.122Z,31.30
2019-04-05T21:48:52.849Z,29.33
2019-04-05T21:51:24.781Z,24.67
2019-04-05T21:53:56.740Z,26.97
2019-04-05T21:56:28.516Z,26.97
2019-04-05T21:59:00.259Z,27.63
2019-04-05T22:01:32.100Z,30.05
2019-04-05T22:04:04.593Z,29.70
2019-04-05T22:06:36.464Z,26.52
2019-04-05T22:09:10.126Z,28.43
2019-04-05T22:11:42.203Z,32.33
2019-04-05T22:14:14.009Z,32.07
2019-04-05T22:16:45.899Z,27.43
2019-04-05T22:19:17.616Z,30.00
2019-04-05T22:21:49.356Z,31.93
2019-04-05T22:24:21.102Z,30.62
2019-04-05T22:26:52.897Z,28.47
2019-04-05T22:29:26.211Z,25.85
2019-04-05T22:31:58.032Z,26.70
2019-04-05T22:34:29.730Z,26.53
2019-04-05T22:37:01.474Z,22.20
2019-04-05T22:39:33.371Z,20.82
2019-04-05T22:42:05.191Z,21.90
2019-04-05T22:44:38.964Z,24.63
2019-04-05T22:47:12.005Z,20.93
2019-04-05T22:49:43.801Z,22.77
2019-04-05T22:52:15.535Z,19.65
2019-04-05T22:54:47.256Z,20.93
2019-04-05T22:57:19.065Z,26.27
2019-04-05T22:59:50.875Z,22.98
2019-04-05T23:02:22.750Z,22.80
2019-04-05T23:04:54.498Z,24.53
2019-04-05T23:07:26.512Z,23.32
2019-04-05T23:09:58.318Z,18.47
2019-04-05T23:12:30.498Z,22.77
2019-04-05T23:15:02.218Z,23.10
2019-04-05T23:17:34.378Z,24.70
2019-04-05T23:20:07.095Z,24.20
2019-04-05T23:22:39.212Z,25.77
2019-04-05T23:25:21.502Z,30.47
2019-04-05T23:27:45.562Z,38.08
2019-04-05T23:30:18.907Z,30.72
2019-04-05T23:32:50.921Z,32.05
2019-04-05T23:35:22.656Z,28.23
2019-04-05T23:37:54.389Z,32.47
2019-04-05T23:40:26.518Z,33.35
2019-04-05T23:42:58.402Z,27.43
2019-04-05T23:45:30.105Z,27.43
2019-04-05T23:48:01.871Z,24.03
2019-04-05T23:50:33.610Z,27.30
2019-04-05T23:53:05.622Z,23.80
2019-04-05T23:55:37.373Z,30.07
2019-04-05T23:58:09.568Z,27.50
